Fall River Mills, California
Current Conditions -  °F | °C
As of 7:56 AM on Wednesday 28 Jan 2015 (Local Time) from KMHS Reporting Station
Haze Haze  
Wind Chill: 32°   Ceiling: Unl
Heat Index: 32°   Visibility: 5mi
Dew Point: 28°   Wind: 0mph
Humidity: 85%   Direction: NA
Pressure: 30.32"   Gusts: NA
Location:  41°N, 121.44°W
Report Text: KMHS 281556Z AUTO 00000KT 5SM BR CLR 00/M02 A3032 RMK AO2 SLP297 T00001022
Loading
Personal Weather Stations






























Interactive Weather Map New forecast layout! Learn more

10-Day Weather Forecast

Advertisements
Track Severe Weather on mobile